DKH8115 ZSPD-ZSLO
Flight info
| Callsign | DKH8115 |
|---|---|
| Flight time | N/A |
| Altitude | 32100 |
| Route | NXD A599 OMDEM H2 QO H22 P379 |
| Aircraft | A20N/M-SDE2E3FGHIRWXY/LB1 |
Departure
| Time | N/A |
|---|---|
| Airport | Shanghai Pudong International Airport (ZSPD) |
Arrival
| Time | 2026-04-27 06:58 |
|---|---|
| Airport | Liancheng Guanzhishan Airport (ZSLO) |
| Time | Latitude | Longitude | Altitude | Speed | Heading |
|---|---|---|---|---|---|
| 2026-04-27 06:45 | 25.75231 | 116.82568 | 11784 ft | 393 kts | 252° |
| 2026-04-27 06:45 | 25.74402 | 116.79627 | 11773 ft | 393 kts | 252° |
| 2026-04-27 06:46 | 25.73586 | 116.76741 | 11789 ft | 381 kts | 252° |
| 2026-04-27 06:46 | 25.73034 | 116.74794 | 11519 ft | 361 kts | 252° |
| 2026-04-27 06:46 | 25.72334 | 116.72337 | 11216 ft | 333 kts | 252° |
| 2026-04-27 06:46 | 25.71655 | 116.69959 | 10969 ft | 305 kts | 252° |
| 2026-04-27 06:47 | 25.71039 | 116.67807 | 10787 ft | 284 kts | 252° |
| 2026-04-27 06:47 | 25.70481 | 116.65859 | 10633 ft | 277 kts | 252° |
| 2026-04-27 06:47 | 25.69897 | 116.63824 | 10494 ft | 270 kts | 252° |
| 2026-04-27 06:47 | 25.69192 | 116.61915 | 10349 ft | 266 kts | 237° |
| 2026-04-27 06:48 | 25.67911 | 116.60426 | 10232 ft | 263 kts | 215° |
| 2026-04-27 06:48 | 25.66301 | 116.59521 | 10145 ft | 262 kts | 204° |
| 2026-04-27 06:48 | 25.64569 | 116.58739 | 9902 ft | 264 kts | 203° |
| 2026-04-27 06:48 | 25.62854 | 116.57973 | 9582 ft | 264 kts | 203° |
| 2026-04-27 06:49 | 25.61127 | 116.57196 | 9269 ft | 264 kts | 203° |
| 2026-04-27 06:49 | 25.59431 | 116.56428 | 8964 ft | 264 kts | 203° |
| 2026-04-27 06:49 | 25.57719 | 116.55651 | 8661 ft | 263 kts | 203° |
| 2026-04-27 06:49 | 25.56014 | 116.54877 | 8359 ft | 262 kts | 203° |
| 2026-04-27 06:50 | 25.54315 | 116.54102 | 8109 ft | 257 kts | 203° |
| 2026-04-27 06:50 | 25.52704 | 116.53370 | 8076 ft | 243 kts | 203° |
| 2026-04-27 06:50 | 25.51147 | 116.52662 | 8047 ft | 234 kts | 203° |
| 2026-04-27 06:50 | 25.49630 | 116.51972 | 8012 ft | 233 kts | 202° |
| 2026-04-27 06:51 | 25.48054 | 116.51537 | 7741 ft | 234 kts | 176° |
| 2026-04-27 06:51 | 25.46553 | 116.52141 | 7471 ft | 233 kts | 142° |
| 2026-04-27 06:51 | 25.45571 | 116.53560 | 7207 ft | 232 kts | 114° |
| 2026-04-27 06:51 | 25.44970 | 116.55247 | 6961 ft | 234 kts | 113° |
| 2026-04-27 06:52 | 25.44369 | 116.56904 | 6711 ft | 234 kts | 114° |
| 2026-04-27 06:52 | 25.43751 | 116.58570 | 6478 ft | 231 kts | 114° |
| 2026-04-27 06:52 | 25.43139 | 116.60214 | 6280 ft | 225 kts | 112° |
| 2026-04-27 06:52 | 25.42898 | 116.61901 | 6040 ft | 223 kts | 80° |
| 2026-04-27 06:53 | 25.43562 | 116.63409 | 5868 ft | 218 kts | 46° |
| 2026-04-27 06:53 | 25.44828 | 116.64311 | 5669 ft | 213 kts | 22° |
| 2026-04-27 06:53 | 25.46209 | 116.64906 | 5546 ft | 211 kts | 22° |
| 2026-04-27 06:53 | 25.47585 | 116.65501 | 5430 ft | 211 kts | 22° |
| 2026-04-27 06:54 | 25.48942 | 116.66102 | 5341 ft | 204 kts | 23° |
| 2026-04-27 06:54 | 25.50252 | 116.66692 | 5096 ft | 201 kts | 23° |
| 2026-04-27 06:54 | 25.51537 | 116.67278 | 4801 ft | 200 kts | 24° |
| 2026-04-27 06:54 | 25.52833 | 116.67870 | 4486 ft | 198 kts | 23° |
| 2026-04-27 06:55 | 25.54108 | 116.68451 | 4135 ft | 196 kts | 24° |
| 2026-04-27 06:55 | 25.55377 | 116.69029 | 3834 ft | 192 kts | 24° |
| 2026-04-27 06:55 | 25.56582 | 116.69579 | 3549 ft | 182 kts | 24° |
| 2026-04-27 06:55 | 25.57732 | 116.70104 | 3286 ft | 174 kts | 24° |
| 2026-04-27 06:56 | 25.58831 | 116.70606 | 3064 ft | 163 kts | 25° |
| 2026-04-27 06:56 | 25.59845 | 116.71069 | 2826 ft | 152 kts | 24° |
| 2026-04-27 06:56 | 25.60816 | 116.71513 | 2603 ft | 147 kts | 25° |
| 2026-04-27 06:56 | 25.61763 | 116.71957 | 2408 ft | 147 kts | 25° |
| 2026-04-27 06:57 | 25.62699 | 116.72396 | 2191 ft | 146 kts | 24° |
| 2026-04-27 06:57 | 25.63647 | 116.72816 | 1974 ft | 145 kts | 24° |
| 2026-04-27 06:57 | 25.64585 | 116.73231 | 1763 ft | 144 kts | 23° |
| 2026-04-27 06:57 | 25.65459 | 116.73628 | 1573 ft | 143 kts | 24° |
| 2026-04-27 06:58 | 25.66382 | 116.74054 | 1356 ft | 143 kts | 25° |
| 2026-04-27 06:58 | 25.67869 | 116.74742 | 1230 ft | 71 kts | 22° |
| 2026-04-27 06:58 | 25.68099 | 116.74844 | 1233 ft | 18 kts | 22° |
| 2026-04-27 06:59 | 25.68218 | 116.74899 | 1235 ft | 17 kts | 22° |
| 2026-04-27 06:59 | 25.68275 | 116.74935 | 1236 ft | 8 kts | 61° |
| 2026-04-27 06:59 | 25.68271 | 116.75000 | 1237 ft | 8 kts | 112° |
| 2026-04-27 06:59 | 25.68250 | 116.75055 | 1239 ft | 6 kts | 112° |
| 2026-04-27 07:00 | 25.68235 | 116.75097 | 1241 ft | 6 kts | 112° |
| 2026-04-27 07:00 | 25.68217 | 116.75144 | 1244 ft | 6 kts | 112° |
| 2026-04-27 07:00 | 25.68200 | 116.75191 | 1247 ft | 6 kts | 111° |
| 2026-04-27 07:00 | 25.68181 | 116.75245 | 1249 ft | 8 kts | 111° |
| 2026-04-27 07:01 | 25.68161 | 116.75304 | 1249 ft | 6 kts | 107° |
| 2026-04-27 07:01 | 25.68161 | 116.75333 | 1248 ft | 0 kts | 75° |
| 2026-04-27 07:01 | 25.68164 | 116.75345 | 1247 ft | 1 kts | 73° |
| 2026-04-27 07:01 | 25.68166 | 116.75349 | 1247 ft | 0 kts | 73° |